createdAt,value
2023-05-11T00:21:09.013Z,1
2023-05-11T00:49:53.366Z,2
2023-05-11T01:18:33.670Z,1
2023-05-11T01:47:18.118Z,1
2023-05-11T02:15:58.315Z,3
2023-05-11T02:44:41.271Z,3
2023-05-11T03:13:29.671Z,3
2023-05-11T03:42:15.963Z,3
2023-05-11T04:10:43.896Z,3
2023-05-11T04:39:32.251Z,4
2023-05-11T05:08:15.974Z,4
2023-05-11T05:36:43.880Z,6
2023-05-11T06:05:13.939Z,6
2023-05-11T06:34:05.669Z,4
2023-05-11T07:02:35.165Z,6
2023-05-11T07:31:08.966Z,6
2023-05-11T07:59:33.584Z,4
2023-05-11T08:28:03.232Z,4
2023-05-11T08:56:31.934Z,4
2023-05-11T09:24:56.837Z,7
2023-05-11T09:53:33.903Z,6
2023-05-11T10:21:52.676Z,7
2023-05-11T10:50:23.669Z,8
2023-05-11T11:18:44.230Z,14
2023-05-11T11:47:31.124Z,12
2023-05-11T12:16:00.609Z,10
2023-05-11T12:44:37.074Z,8
2023-05-11T13:13:04.821Z,8
2023-05-11T13:41:36.767Z,7
2023-05-11T14:10:17.455Z,9
2023-05-11T14:38:50.387Z,8
2023-05-11T15:07:15.577Z,5
2023-05-11T15:35:38.325Z,5
2023-05-11T16:04:02.764Z,4
2023-05-11T16:32:28.459Z,6
2023-05-11T17:00:59.367Z,7
2023-05-11T17:29:26.557Z,8
2023-05-11T17:58:06.541Z,7
2023-05-11T18:26:29.543Z,8
2023-05-11T18:54:59.896Z,14
2023-05-11T19:23:39.274Z,15
2023-05-11T19:51:51.587Z,12
2023-05-11T20:20:27.254Z,21
2023-05-11T20:49:10.067Z,14
2023-05-11T21:17:43.150Z,14
2023-05-11T21:46:14.100Z,14
2023-05-11T22:14:49.377Z,14
2023-05-11T22:43:21.181Z,14
2023-05-11T23:12:06.086Z,14
2023-05-11T23:40:50.720Z,12
